Time;durP1;ratioP1;P1;durP2;ratioP2;P2;SDS_P1;SDS_P2;PMS_P1;PMS_P2;Temp;Humidity;BMP_temperature;BMP_pressure;BME280_temperature;BME280_humidity;BME280_pressure;Samples;Min_cycle;Max_cycle;Signal;HPM_P1;HPM_P2
2022/02/08 00:01:14;;;;;;;34.47;7.55;;;;;;;12.38;100.00;102424.19;5083195;28;20043;-45
2022/02/08 00:03:40;;;;;;;34.97;8.80;;;;;;;12.29;100.00;102420.66;5078259;28;20028;-44
2022/02/08 00:08:33;;;;;;;30.70;7.90;;;;;;;12.24;100.00;102416.81;5085286;28;20038;-45
2022/02/08 00:10:59;;;;;;;32.63;6.93;;;;;;;12.15;100.00;102408.75;5081307;28;20045;-50
2022/02/08 00:13:24;;;;;;;37.50;7.83;;;;;;;12.21;100.00;102411.78;5091642;28;20036;-45
2022/02/08 00:15:50;;;;;;;28.33;7.03;;;;;;;11.96;100.00;102411.72;5079121;28;20138;-45
2022/02/08 00:18:15;;;;;;;34.63;7.60;;;;;;;12.17;100.00;102405.91;5086948;28;20068;-43
2022/02/08 00:20:40;;;;;;;40.90;7.67;;;;;;;12.25;100.00;102411.28;5086251;28;20032;-44
2022/02/08 00:23:06;;;;;;;41.87;9.03;;;;;;;12.32;100.00;102411.44;5080079;28;20032;-45
2022/02/08 00:25:31;;;;;;;31.70;8.27;;;;;;;12.23;100.00;102402.56;5091247;28;20085;-45
2022/02/08 00:27:57;;;;;;;34.23;9.07;;;;;;;12.18;100.00;102400.38;5061983;28;20032;-47
2022/02/08 00:30:22;;;;;;;28.40;8.03;;;;;;;12.43;100.00;102411.09;5085885;28;20032;-44
2022/02/08 00:32:48;;;;;;;36.93;8.33;;;;;;;12.22;100.00;102400.03;5085815;28;20088;-44
2022/02/08 00:35:13;;;;;;;27.10;7.97;;;;;;;12.08;100.00;102394.34;5090493;28;20120;-45
2022/02/08 00:37:38;;;;;;;21.77;9.13;;;;;;;11.85;100.00;102403.00;5064775;28;20047;-45
2022/02/08 00:40:05;;;;;;;46.37;11.20;;;;;;;12.15;100.00;102395.34;5081469;28;20025;-44
2022/02/08 00:42:32;;;;;;;35.85;10.73;;;;;;;12.29;100.00;102399.19;5067110;28;20032;-44
2022/02/08 00:45:12;;;;;;;33.05;10.65;;;;;;;12.06;100.00;102393.69;5064960;28;20128;-45
2022/02/08 00:47:42;;;;;;;35.35;11.73;;;;;;;12.21;100.00;102406.41;5083274;28;20058;-43
2022/02/08 00:50:10;;;;;;;35.58;11.82;;;;;;;12.38;100.00;102397.34;5081299;28;20032;-45
2022/02/08 00:52:38;;;;;;;33.15;11.93;;;;;;;12.29;100.00;102404.56;5067384;28;20036;-45
2022/02/08 00:55:07;;;;;;;33.88;11.60;;;;;;;12.08;100.00;102391.66;5077035;28;20033;-46
2022/02/08 00:57:33;;;;;;;35.60;12.88;;;;;;;12.29;100.00;102401.88;5090541;28;20054;-46
2022/02/08 00:59:59;;;;;;;45.80;13.88;;;;;;;12.30;100.00;102400.06;5079334;28;20032;-44
2022/02/08 01:02:25;;;;;;;38.33;13.38;;;;;;;12.16;100.00;102382.78;5067323;28;20035;-47
2022/02/08 01:04:59;;;;;;;34.83;12.27;;;;;;;11.95;100.00;102384.09;5086613;28;20043;-45
2022/02/08 01:07:27;;;;;;;36.50;14.52;;;;;;;11.86;100.00;102380.56;5077832;28;20115;-44
2022/02/08 01:12:20;;;;;;;28.20;13.93;;;;;;;12.28;100.00;102394.03;5056363;28;20028;-46
2022/02/08 01:14:49;;;;;;;39.58;13.88;;;;;;;12.12;100.00;102387.66;5067760;28;20032;-45
2022/02/08 01:17:15;;;;;;;40.58;15.80;;;;;;;12.29;100.00;102374.22;5076209;28;20040;-45
2022/02/08 01:20:19;;;;;;;35.17;16.58;;;;;;;11.91;100.00;102377.41;5089679;28;20051;-49
2022/02/08 01:22:37;;;;;;;39.28;14.30;;;;;;;11.87;100.00;102390.28;5062715;28;20058;-43
2022/02/08 01:25:08;;;;;;;30.60;13.60;;;;;;;11.85;100.00;102388.75;5079685;28;20062;-46
2022/02/08 01:27:41;;;;;;;47.83;16.92;;;;;;;12.09;100.00;102377.25;5071710;28;20047;-46
2022/02/08 01:30:14;;;;;;;44.63;16.52;;;;;;;11.88;100.00;102407.22;5061594;28;20039;-45
2022/02/08 01:35:52;;;;;;;36.33;14.15;;;;;;;12.26;100.00;102399.53;5071423;28;20035;-48
2022/02/08 01:38:20;;;;;;;38.65;14.88;;;;;;;11.91;100.00;102399.66;5054616;28;20047;-44
2022/02/08 01:44:07;;;;;;;39.28;15.60;;;;;;;12.11;100.00;102402.06;5058306;28;20079;-49
2022/02/08 01:46:50;;;;;;;41.05;17.25;;;;;;;12.24;100.00;102400.72;5084045;28;20037;-45
2022/02/08 01:51:52;;;;;;;42.78;19.40;;;;;;;12.27;100.00;102403.06;5054993;28;20043;-46
2022/02/08 01:54:18;;;;;;;50.80;20.52;;;;;;;12.41;100.00;102407.75;5062777;28;20395;-50
2022/02/08 01:56:44;;;;;;;46.03;21.55;;;;;;;12.66;100.00;102406.88;5075043;28;20031;-44
2022/02/08 01:59:11;;;;;;;41.08;19.83;;;;;;;12.76;100.00;102411.06;5071543;28;20040;-46
2022/02/08 02:01:38;;;;;;;51.78;21.10;;;;;;;12.64;100.00;102420.47;5073314;28;20499;-43
2022/02/08 02:04:04;;;;;;;45.45;22.63;;;;;;;12.46;100.00;102409.91;5070680;28;20520;-46
2022/02/08 02:06:31;;;;;;;53.42;20.92;;;;;;;12.56;100.00;102415.94;5054646;28;20032;-45
2022/02/08 02:08:58;;;;;;;60.60;22.42;;;;;;;12.65;100.00;102422.13;5067736;28;20565;-46
2022/02/08 02:11:26;;;;;;;48.50;22.45;;;;;;;12.86;100.00;102408.19;5074028;28;20133;-47
2022/02/08 02:13:51;;;;;;;62.97;25.10;;;;;;;13.00;100.00;102412.00;5075233;28;20059;-50
2022/02/08 02:16:24;;;;;;;62.78;25.23;;;;;;;13.11;100.00;102404.56;5074369;28;20028;-44
2022/02/08 02:18:50;;;;;;;58.03;26.55;;;;;;;13.11;100.00;102410.78;5062158;28;20055;-53
2022/02/08 02:21:17;;;;;;;62.60;26.33;;;;;;;13.04;100.00;102402.56;5054350;28;20044;-47
2022/02/08 02:23:48;;;;;;;62.30;25.52;;;;;;;13.33;100.00;102417.22;5088739;28;20089;-45
2022/02/08 02:26:19;;;;;;;63.35;25.80;;;;;;;13.29;100.00;102405.16;5062199;28;20055;-46
2022/02/08 02:28:44;;;;;;;54.23;23.00;;;;;;;12.89;100.00;102409.66;5081577;28;20060;-47
2022/02/08 02:31:10;;;;;;;66.78;27.02;;;;;;;12.97;100.00;102406.13;5069031;28;20073;-48
2022/02/08 02:33:36;;;;;;;71.73;28.93;;;;;;;13.45;100.00;102404.25;5070840;28;20047;-46
2022/02/08 02:36:01;;;;;;;73.03;29.38;;;;;;;12.90;100.00;102403.28;5058883;28;20093;-44
2022/02/08 02:38:26;;;;;;;74.10;28.63;;;;;;;12.85;100.00;102400.28;5083013;28;20028;-49
2022/02/08 02:40:53;;;;;;;69.63;27.35;;;;;;;12.81;100.00;102399.81;5078462;28;20055;-50
2022/02/08 02:43:22;;;;;;;81.68;31.52;;;;;;;12.81;100.00;102390.91;5068089;28;20093;-47
2022/02/08 02:45:47;;;;;;;80.83;29.80;;;;;;;12.84;100.00;102394.09;5080075;28;20492;-44
2022/02/08 02:48:14;;;;;;;83.57;30.83;;;;;;;13.11;100.00;102393.81;5063330;28;20480;-45
2022/02/08 02:50:52;;;;;;;84.50;31.88;;;;;;;12.97;100.00;102384.63;5065182;28;20119;-45
2022/02/08 02:53:20;;;;;;;75.82;31.13;;;;;;;13.00;100.00;102395.03;5068235;28;20023;-45
2022/02/08 02:55:46;;;;;;;91.72;31.27;;;;;;;13.03;100.00;102403.59;5064483;28;20036;-44
2022/02/08 02:58:11;;;;;;;77.55;30.38;;;;;;;13.19;100.00;102394.63;5062261;28;20059;-44
2022/02/08 03:00:41;;;;;;;86.47;29.80;;;;;;;13.04;100.00;102388.31;5081466;28;20067;-47
2022/02/08 03:19:27;;;;;;;79.75;29.75;;;;;;;13.50;100.00;102401.06;5069295;28;20188;-45
2022/02/08 03:21:53;;;;;;;73.95;28.10;;;;;;;13.15;100.00;102393.28;5062346;28;20153;-46
2022/02/08 03:24:18;;;;;;;65.00;25.23;;;;;;;13.53;100.00;102395.31;5061358;28;20488;-48
2022/02/08 03:26:44;;;;;;;67.83;25.50;;;;;;;13.24;100.00;102391.41;5061183;28;20032;-45
2022/02/08 03:29:10;;;;;;;61.42;20.05;;;;;;;13.07;100.00;102396.03;5062105;28;20394;-44
2022/02/08 03:31:36;;;;;;;62.38;24.80;;;;;;;13.41;100.00;102384.09;5061723;28;20115;-43
2022/02/08 03:34:03;;;;;;;63.35;22.58;;;;;;;13.12;100.00;102387.44;5068449;28;20028;-47
2022/02/08 03:36:31;;;;;;;56.13;23.45;;;;;;;13.77;100.00;102374.66;5062449;28;20035;-47
2022/02/08 03:41:41;;;;;;;57.53;21.73;;;;;;;13.42;100.00;102393.00;5069752;28;20546;-49
2022/02/08 03:44:22;;;;;;;49.97;20.20;;;;;;;13.31;100.00;102413.88;5059386;28;20034;-51
2022/02/08 03:46:52;;;;;;;52.33;19.10;;;;;;;13.63;100.00;102389.72;5061619;28;20047;-48
2022/02/08 03:49:19;;;;;;;48.53;19.58;;;;;;;13.94;100.00;102383.44;5068670;28;20032;-46
2022/02/08 03:51:51;;;;;;;48.47;19.08;;;;;;;13.81;100.00;102391.28;5056919;28;20550;-44
2022/02/08 03:54:19;;;;;;;44.95;18.40;;;;;;;14.20;100.00;102390.31;5066717;28;20082;-47
2022/02/08 03:56:44;;;;;;;53.28;20.40;;;;;;;13.98;100.00;102394.69;5063994;28;20169;-45
2022/02/08 03:59:12;;;;;;;48.00;19.63;;;;;;;13.81;100.00;102397.50;5059175;28;20544;-45
2022/02/08 04:06:53;;;;;;;45.47;19.63;;;;;;;13.61;100.00;102400.66;5080133;28;20045;-47
2022/02/08 04:09:18;;;;;;;48.47;18.52;;;;;;;14.01;100.00;102405.09;5086460;28;20044;-46
2022/02/08 04:17:16;;;;;;;45.63;18.85;;;;;;;14.04;100.00;102426.25;5084539;28;20108;-46
2022/02/08 04:20:01;;;;;;;37.42;16.48;;;;;;;13.90;100.00;102407.19;5074288;28;20109;-45
2022/02/08 04:36:24;;;;;;;43.77;15.53;;;;;;;14.17;100.00;102414.88;5091236;28;20070;-47
2022/02/08 04:41:28;;;;;;;37.50;14.25;;;;;;;14.20;100.00;102399.22;5079423;28;20288;-46
2022/02/08 04:44:12;;;;;;;29.48;13.23;;;;;;;14.05;100.00;102399.16;5090795;28;20046;-46
2022/02/08 04:49:06;;;;;;;30.27;12.30;;;;;;;13.99;100.00;102399.06;5080946;28;20136;-47
2022/02/08 04:51:52;;;;;;;29.97;12.80;;;;;;;13.85;100.00;102396.13;5090737;28;20322;-44
2022/02/08 04:54:34;;;;;;;36.17;12.40;;;;;;;13.97;100.00;102380.41;5080862;28;20038;-45
2022/02/08 05:26:52;;;;;;;25.65;9.38;;;;;;;14.48;100.00;102409.38;5089782;28;20044;-49
2022/02/08 05:27:09;;;;;;;26.30;10.43;;;;;;;14.17;100.00;102386.13;5093826;28;20281;-44
2022/02/08 05:43:00;;;;;;;30.80;10.07;;;;;;;13.98;100.00;102392.84;5081942;28;20040;-45
2022/02/08 05:45:29;;;;;;;21.02;9.02;;;;;;;14.09;100.00;102375.44;5077529;28;20124;-46
2022/02/08 05:47:58;;;;;;;25.27;9.65;;;;;;;13.75;100.00;102387.44;5089760;28;20111;-44
2022/02/08 05:55:27;;;;;;;21.30;9.20;;;;;;;13.91;100.00;102386.50;5089106;28;20044;-46
2022/02/08 05:57:53;;;;;;;;;;;;;;;14.41;100.00;102392.31;5076811;28;20277;-47
2022/02/08 06:00:27;;;;;;;26.43;9.37;;;;;;;14.10;100.00;102390.56;5086558;28;20069;-46
2022/02/08 06:03:06;;;;;;;19.70;8.57;;;;;;;14.40;100.00;102389.78;5067520;28;20131;-45
2022/02/08 06:05:41;;;;;;;18.25;8.27;;;;;;;13.87;100.00;102390.56;5058255;28;20330;-48
2022/02/08 06:08:06;;;;;;;22.90;9.23;;;;;;;14.41;100.00;102384.22;5088302;28;20104;-43
2022/02/08 06:10:33;;;;;;;27.10;6.93;;;;;;;14.08;100.00;102373.78;5081035;28;20408;-45
2022/02/08 06:12:58;;;;;;;;;;;;;;;14.54;100.00;102390.84;5081377;28;20511;-48
2022/02/08 06:15:30;;;;;;;28.40;9.25;;;;;;;14.23;100.00;102399.88;5055213;28;20291;-45
2022/02/08 06:17:57;;;;;;;20.92;6.75;;;;;;;14.32;100.00;102394.22;5057525;28;20044;-44
2022/02/08 06:20:25;;;;;;;21.98;7.05;;;;;;;13.96;100.00;102391.34;5071141;28;20032;-48
2022/02/08 06:22:51;;;;;;;25.48;7.25;;;;;;;14.21;100.00;102397.38;5072630;28;20162;-49
2022/02/08 06:25:18;;;;;;;23.65;7.40;;;;;;;14.09;100.00;102399.66;5072994;28;20044;-44
2022/02/08 06:27:50;;;;;;;19.43;6.50;;;;;;;14.56;100.00;102388.81;5074266;28;20123;-45
2022/02/08 06:30:18;;;;;;;24.70;7.23;;;;;;;14.44;100.00;102385.72;5087010;28;20380;-44
2022/02/08 06:32:44;;;;;;;20.75;8.50;;;;;;;14.56;100.00;102388.81;5082160;28;20367;-46
2022/02/08 06:35:20;;;;;;;20.73;6.53;;;;;;;14.48;100.00;102390.53;5078872;28;20036;-46
2022/02/08 06:37:46;;;;;;;21.35;7.05;;;;;;;14.00;100.00;102396.19;5088727;28;20044;-45
2022/02/08 06:40:12;;;;;;;32.80;7.45;;;;;;;14.33;100.00;102395.06;5077564;28;20031;-50
2022/02/08 06:42:40;;;;;;;19.60;6.35;;;;;;;14.30;100.00;102390.03;5083504;28;20032;-47
2022/02/08 06:45:07;;;;;;;16.05;5.97;;;;;;;14.45;100.00;102398.16;5084311;28;20047;-46
2022/02/08 06:47:32;;;;;;;16.30;6.00;;;;;;;14.00;100.00;102400.72;5080899;28;20494;-48
2022/02/08 06:49:58;;;;;;;20.57;6.57;;;;;;;14.16;100.00;102408.66;5079619;28;20051;-50
2022/02/08 06:52:24;;;;;;;23.83;6.50;;;;;;;14.14;100.00;102412.53;5078629;28;20268;-47
2022/02/08 06:54:50;;;;;;;15.00;5.03;;;;;;;14.41;100.00;102413.84;5082403;28;20036;-46
2022/02/08 06:57:17;;;;;;;17.42;5.20;;;;;;;14.23;100.00;102416.84;5077360;28;20037;-44
2022/02/08 06:59:50;;;;;;;15.70;4.67;;;;;;;14.38;100.00;102414.19;5088511;28;20097;-47
2022/02/08 07:02:15;;;;;;;24.23;6.47;;;;;;;14.49;100.00;102415.63;5078404;28;20294;-48
2022/02/08 07:04:41;;;;;;;25.92;5.32;;;;;;;14.55;100.00;102416.75;5081236;28;20268;-49
2022/02/08 07:07:08;;;;;;;17.90;4.90;;;;;;;14.48;100.00;102414.75;5079433;28;20037;-50
2022/02/08 07:09:34;;;;;;;19.47;4.70;;;;;;;14.90;100.00;102419.75;5087992;28;20043;-47
2022/02/08 07:12:00;;;;;;;24.85;4.28;;;;;;;14.62;100.00;102420.38;5077980;28;20264;-50
2022/02/08 07:14:30;;;;;;;18.60;4.00;;;;;;;14.61;100.00;102430.28;5078088;28;20036;-43
2022/02/08 07:16:55;;;;;;;22.63;4.60;;;;;;;14.05;100.00;102441.34;5079769;28;20028;-44
2022/02/08 07:19:21;;;;;;;16.93;4.43;;;;;;;14.37;100.00;102422.44;5079804;28;20335;-46
2022/02/08 07:21:46;;;;;;;15.70;3.87;;;;;;;14.32;100.00;102418.44;5078861;28;20476;-47
2022/02/08 07:24:11;;;;;;;13.63;3.43;;;;;;;14.28;100.00;102417.13;5077879;28;20032;-51
2022/02/08 07:26:37;;;;;;;8.67;2.73;;;;;;;14.22;100.00;102428.63;5079352;28;20039;-45
2022/02/08 07:29:03;;;;;;;11.70;3.03;;;;;;;14.53;100.00;102421.44;5075758;28;20043;-51
2022/02/08 07:31:37;;;;;;;27.48;3.72;;;;;;;14.34;100.00;102432.56;5080258;28;20047;-48
2022/02/08 07:39:09;;;;;;;17.60;3.10;;;;;;;14.77;100.00;102432.03;5083811;28;20766;-49
2022/02/08 07:41:41;;;;;;;19.80;2.73;;;;;;;14.42;100.00;102441.59;5081953;28;20103;-50
2022/02/08 07:44:09;;;;;;;11.43;2.83;;;;;;;14.56;100.00;102445.34;5074649;28;20771;-44
2022/02/08 07:46:45;;;;;;;21.87;4.23;;;;;;;14.44;100.00;102436.88;5061200;28;20273;-53
2022/02/08 07:49:13;;;;;;;14.65;2.65;;;;;;;14.72;100.00;102447.06;5066827;28;20279;-46
2022/02/08 07:51:40;;;;;;;15.50;3.37;;;;;;;14.59;100.00;102450.34;5080070;28;20139;-48
2022/02/08 07:54:06;;;;;;;18.67;2.97;;;;;;;14.33;100.00;102448.91;5076835;28;20280;-50
2022/02/08 07:56:32;;;;;;;12.45;2.30;;;;;;;14.49;100.00;102456.00;5083848;28;20269;-48
2022/02/08 07:58:57;;;;;;;13.15;3.17;;;;;;;14.24;100.00;102449.97;5079420;28;20036;-48
2022/02/08 08:01:23;;;;;;;22.50;3.47;;;;;;;14.69;100.00;102453.59;5081694;28;20036;-44
2022/02/08 08:03:48;;;;;;;9.03;2.40;;;;;;;14.59;100.00;102453.03;5086758;28;20042;-47
2022/02/08 08:06:16;;;;;;;8.90;2.10;;;;;;;14.69;100.00;102448.22;5080061;28;20114;-45
2022/02/08 08:08:43;;;;;;;11.23;2.17;;;;;;;14.41;100.00;102456.03;5067990;28;20472;-45
2022/02/08 08:11:14;;;;;;;14.35;2.95;;;;;;;14.89;100.00;102453.97;5086812;28;20297;-47
2022/02/08 08:13:47;;;;;;;15.30;2.30;;;;;;;14.30;100.00;102460.00;5077434;28;20036;-47
2022/02/08 08:17:03;;;;;;;15.97;2.67;;;;;;;14.51;100.00;102461.19;5090028;28;20280;-46
2022/02/08 08:19:18;;;;;;;8.87;2.03;;;;;;;14.78;100.00;102462.47;5070936;28;20296;-44
2022/02/08 08:21:43;;;;;;;14.20;1.90;;;;;;;14.58;100.00;102468.34;5077389;28;20277;-45
2022/02/08 08:24:09;;;;;;;9.07;1.70;;;;;;;14.55;100.00;102474.09;5090292;28;20277;-49
2022/02/08 08:26:36;;;;;;;15.53;2.13;;;;;;;14.58;100.00;102476.44;5074395;28;20083;-46
2022/02/08 08:29:03;;;;;;;10.57;2.17;;;;;;;14.82;100.00;102471.03;5074235;28;20033;-45
2022/02/08 08:31:29;;;;;;;12.38;2.33;;;;;;;14.91;100.00;102468.06;5070208;28;20299;-46
2022/02/08 08:33:55;;;;;;;10.03;1.70;;;;;;;15.39;100.00;102469.56;5092278;28;20040;-44
2022/02/08 08:36:22;;;;;;;8.93;2.07;;;;;;;14.88;100.00;102472.97;5094280;28;20280;-49
2022/02/08 08:38:49;;;;;;;7.07;2.10;;;;;;;14.79;100.00;102464.16;5084459;28;20473;-45
2022/02/08 08:51:44;;;;;;;16.67;2.93;;;;;;;15.30;100.00;102484.97;5078360;28;20305;-44
2022/02/08 08:54:10;;;;;;;13.40;5.03;;;;;;;15.61;100.00;102483.09;5073925;28;20269;-48
2022/02/08 08:56:36;;;;;;;;;;;;;;;15.55;100.00;102479.28;5082153;28;20288;-47
2022/02/08 08:59:03;;;;;;;15.20;2.00;;;;;;;15.17;100.00;102480.25;5082523;28;19916;-45
2022/02/08 09:01:29;;;;;;;14.70;2.50;;;;;;;14.83;100.00;102497.75;5088784;28;20614;-44
2022/02/08 09:03:54;;;;;;;14.15;2.33;;;;;;;15.11;100.00;102490.94;5077072;28;20323;-47
2022/02/08 09:06:20;;;;;;;11.93;2.00;;;;;;;15.48;100.00;102489.16;5088562;28;20039;-48
2022/02/08 09:08:45;;;;;;;13.03;3.33;;;;;;;15.23;100.00;102497.53;5083030;28;20028;-46
2022/02/08 09:11:33;;;;;;;18.80;2.10;;;;;;;15.71;100.00;102485.50;5086669;28;20329;-45
2022/02/08 09:14:10;;;;;;;15.43;3.10;;;;;;;15.36;100.00;102482.56;5093670;28;20040;-45
2022/02/08 09:24:31;;;;;;;9.13;2.30;;;;;;;15.63;100.00;102483.75;5075014;28;20055;-47
2022/02/08 09:29:46;;;;;;;9.50;1.87;;;;;;;15.84;100.00;102517.19;5090180;28;20272;-47
2022/02/08 09:32:17;;;;;;;11.63;2.97;;;;;;;15.21;100.00;102499.56;5072934;28;20273;-48
2022/02/08 09:34:43;;;;;;;17.23;3.67;;;;;;;15.73;100.00;102481.56;5082009;28;20272;-49
2022/02/08 09:37:11;;;;;;;7.80;2.30;;;;;;;15.29;100.00;102480.63;5081117;28;20376;-47
2022/02/08 09:39:37;;;;;;;7.87;2.03;;;;;;;15.10;100.00;102482.00;5089048;28;20062;-48
2022/02/08 09:42:04;;;;;;;11.80;1.88;;;;;;;15.56;100.00;102480.09;5076369;28;20272;-47
2022/02/08 09:44:32;;;;;;;10.10;3.07;;;;;;;15.99;100.00;102471.28;5086520;28;20039;-47
2022/02/08 09:46:59;;;;;;;17.00;2.40;;;;;;;16.10;100.00;102461.84;5065147;28;20276;-49
2022/02/08 09:49:26;;;;;;;19.47;2.30;;;;;;;16.03;100.00;102470.72;5093010;28;20272;-47
2022/02/08 09:51:51;;;;;;;;;;;;;;;16.12;100.00;102467.91;5075030;28;20265;-50
2022/02/08 09:54:20;;;;;;;17.00;2.10;;;;;;;16.16;100.00;102475.41;5077602;28;19912;-46
2022/02/08 09:56:46;;;;;;;9.53;1.80;;;;;;;15.72;100.00;102484.47;5083785;28;20028;-44
2022/02/08 09:59:12;;;;;;;6.00;1.88;;;;;;;16.12;100.00;102479.50;5085215;28;20288;-51
2022/02/08 10:01:38;;;;;;;8.07;1.75;;;;;;;16.34;100.00;102482.19;5075997;28;20119;-49
2022/02/08 10:04:04;;;;;;;;;;;;;;;16.29;100.00;102488.22;5090070;28;20033;-49
2022/02/08 10:06:31;;;;;;;15.37;2.60;;;;;;;16.60;100.00;102481.59;5072413;28;19920;-49
2022/02/08 10:09:02;;;;;;;12.23;2.23;;;;;;;16.77;100.00;102484.03;5082774;28;20066;-50
2022/02/08 10:11:41;;;;;;;13.37;2.97;;;;;;;16.34;100.00;102482.19;5078198;28;20284;-46
2022/02/08 10:22:31;;;;;;;9.73;1.58;;;;;;;16.48;100.00;102484.00;5086166;28;20720;-47
2022/02/08 10:25:14;;;;;;;12.93;1.83;;;;;;;16.45;100.00;102479.00;5081485;28;20044;-44
2022/02/08 10:27:48;;;;;;;8.47;1.83;;;;;;;16.64;100.00;102482.06;5073962;28;20273;-47
2022/02/08 10:38:20;;;;;;;9.53;1.80;;;;;;;16.11;100.00;102496.72;5076876;28;20330;-45
2022/02/08 10:40:46;;;;;;;14.13;2.20;;;;;;;16.19;100.00;102493.06;5083325;28;20820;-48
2022/02/08 10:43:16;;;;;;;14.13;2.92;;;;;;;16.51;100.00;102498.13;5084224;28;20035;-49
2022/02/08 10:45:42;;;;;;;14.03;3.40;;;;;;;16.36;100.00;102496.34;5075030;28;20048;-44
2022/02/08 10:48:10;;;;;;;24.83;4.00;;;;;;;16.26;100.00;102517.44;5088332;28;20364;-47
2022/02/08 10:50:42;;;;;;;8.13;2.27;;;;;;;16.17;100.00;102498.69;5078706;28;20031;-44
2022/02/08 10:53:10;;;;;;;12.73;1.90;;;;;;;16.18;100.00;102480.59;5080105;28;20280;-46
2022/02/08 11:00:58;;;;;;;8.27;1.80;;;;;;;16.17;100.00;102485.19;5079623;28;20032;-50
2022/02/08 11:03:37;;;;;;;11.53;2.00;;;;;;;16.18;100.00;102494.94;5076486;28;20273;-45
2022/02/08 11:06:17;;;;;;;10.07;1.70;;;;;;;16.37;100.00;102494.50;5087724;28;20345;-47
2022/02/08 11:14:08;;;;;;;10.03;2.17;;;;;;;16.46;100.00;102480.66;5073519;28;20697;-45
2022/02/08 11:16:53;;;;;;;12.53;3.20;;;;;;;16.61;100.00;102472.47;5082571;28;20277;-45
2022/02/08 11:19:37;;;;;;;13.17;2.47;;;;;;;16.43;100.00;102470.25;5081827;28;20277;-46
2022/02/08 11:22:09;;;;;;;13.83;2.00;;;;;;;16.71;100.00;102472.13;5078389;28;20281;-46
2022/02/08 11:24:44;;;;;;;11.13;2.70;;;;;;;16.38;100.00;102471.88;5069040;28;20334;-47
2022/02/08 11:27:17;;;;;;;11.50;2.77;;;;;;;17.11;100.00;102476.16;5062520;28;20284;-46
2022/02/08 11:30:04;;;;;;;7.17;2.03;;;;;;;17.19;100.00;102473.28;5068938;28;20277;-47
2022/02/08 11:33:28;;;;;;;8.93;1.70;;;;;;;16.75;100.00;102462.59;5077328;28;20281;-48
2022/02/08 11:44:11;;;;;;;7.83;1.63;;;;;;;17.13;100.00;102468.69;5091603;28;20376;-45
2022/02/08 11:51:50;;;;;;;17.33;1.77;;;;;;;17.05;100.00;102472.38;5074954;28;20043;-48
2022/02/08 11:54:39;;;;;;;9.23;1.67;;;;;;;17.02;100.00;102461.97;5078986;28;20280;-46
2022/02/08 12:07:20;;;;;;;11.87;2.63;;;;;;;17.22;100.00;102459.34;5087731;28;20276;-48
2022/02/08 12:56:12;;;;;;;18.57;5.27;;;;;;;17.44;100.00;102454.69;5075127;28;20368;-45
2022/02/08 14:15:26;;;;;;;18.43;4.90;;;;;;;17.42;100.00;102474.84;5080024;28;20297;-47
2022/02/08 14:23:50;;;;;;;15.67;4.83;;;;;;;16.99;100.00;102474.00;5071885;28;20333;-48
2022/02/08 14:34:39;;;;;;;14.50;3.20;;;;;;;16.79;100.00;102468.44;5091411;28;20277;-45
2022/02/08 14:37:27;;;;;;;16.07;5.23;;;;;;;17.56;96.72;102471.16;5068269;28;20268;-44
2022/02/08 15:07:27;;;;;;;11.23;4.07;;;;;;;16.53;100.00;102486.13;5079415;28;20295;-45
2022/02/08 15:09:54;;;;;;;9.50;1.80;;;;;;;16.79;100.00;102481.97;5075186;28;20269;-46
2022/02/08 15:12:21;;;;;;;7.00;2.00;;;;;;;16.88;100.00;102488.03;5082739;28;20281;-44
2022/02/08 15:17:16;;;;;;;17.63;5.80;;;;;;;17.40;94.85;102487.75;5091327;28;20273;-45
2022/02/08 15:19:44;;;;;;;27.27;8.10;;;;;;;16.61;100.00;102479.75;5076306;28;20372;-47
2022/02/08 15:22:11;;;;;;;19.17;5.77;;;;;;;16.78;100.00;102494.63;5087896;28;20280;-46
2022/02/08 15:24:37;;;;;;;19.88;4.57;;;;;;;17.23;96.47;102484.53;5077017;28;20359;-48
2022/02/08 15:27:03;;;;;;;27.15;8.55;;;;;;;16.75;100.00;102484.22;5081975;28;20047;-49
2022/02/08 15:29:31;;;;;;;30.00;8.57;;;;;;;17.08;98.22;102479.25;5083897;28;20056;-45
2022/02/08 15:31:57;;;;;;;22.07;7.13;;;;;;;16.97;99.35;102476.03;5073552;28;20082;-45
2022/02/08 15:34:23;;;;;;;31.85;8.82;;;;;;;16.78;100.00;102483.00;5074589;28;20276;-46
2022/02/08 15:36:49;;;;;;;28.42;7.47;;;;;;;16.75;100.00;102478.81;5083496;28;20043;-47
2022/02/08 15:39:14;;;;;;;14.25;2.78;;;;;;;16.76;100.00;102479.66;5063798;28;20032;-46
2022/02/08 15:41:41;;;;;;;18.52;5.25;;;;;;;17.36;98.34;102489.19;5085753;28;20070;-48
2022/02/08 15:44:17;;;;;;;8.50;2.30;;;;;;;17.27;100.00;102492.03;5072775;28;20036;-50
2022/02/08 15:46:43;;;;;;;11.53;3.23;;;;;;;16.99;100.00;102494.81;5077106;28;20031;-49
2022/02/08 15:49:08;;;;;;;11.52;1.92;;;;;;;16.85;100.00;102491.16;5080563;28;20776;-50
2022/02/08 15:51:45;;;;;;;10.73;3.43;;;;;;;16.89;100.00;102490.53;5084109;28;20082;-46
2022/02/08 15:54:19;;;;;;;14.60;2.70;;;;;;;17.03;100.00;102496.88;5090832;28;20078;-46
2022/02/08 15:57:09;;;;;;;4.83;1.60;;;;;;;17.22;100.00;102505.31;5084203;28;20265;-46
2022/02/08 16:05:23;;;;;;;26.77;3.80;;;;;;;16.83;100.00;102501.28;5081173;28;20751;-46
2022/02/08 16:07:59;;;;;;;8.33;1.90;;;;;;;16.62;100.00;102503.84;5086027;28;20269;-46
2022/02/08 16:10:55;;;;;;;8.95;1.67;;;;;;;16.98;100.00;102502.06;5074518;28;20759;-45
2022/02/08 16:13:41;;;;;;;10.27;1.67;;;;;;;16.90;100.00;102486.78;5079020;28;20041;-45
2022/02/08 16:16:33;;;;;;;7.87;1.93;;;;;;;16.44;100.00;102489.97;5086438;28;20819;-47
2022/02/08 16:19:09;;;;;;;8.80;1.43;;;;;;;16.77;100.00;102494.81;5071833;28;20372;-45
2022/02/08 16:53:59;;;;;;;11.67;1.97;;;;;;;16.12;100.00;102517.28;5093801;28;20277;-46
2022/02/08 16:56:30;;;;;;;9.97;1.83;;;;;;;16.11;100.00;102523.72;5077400;28;20287;-44
2022/02/08 16:58:57;;;;;;;6.60;1.63;;;;;;;16.27;100.00;102528.06;5085772;28;20281;-48
2022/02/08 17:01:28;;;;;;;8.67;1.93;;;;;;;16.04;100.00;102528.22;5084885;28;20288;-46
2022/02/08 17:03:54;;;;;;;7.40;1.83;;;;;;;16.51;100.00;102536.78;5077894;28;20273;-46
2022/02/08 17:06:26;;;;;;;5.93;1.63;;;;;;;15.93;100.00;102534.13;5090150;28;20276;-47
2022/02/08 17:09:03;;;;;;;13.77;1.63;;;;;;;16.22;100.00;102535.06;5080950;28;20060;-47
2022/02/08 17:11:39;;;;;;;6.07;1.70;;;;;;;15.85;100.00;102527.75;5081059;28;20360;-46
2022/02/08 17:14:23;;;;;;;5.20;1.13;;;;;;;16.07;100.00;102521.63;5074041;28;20277;-48
2022/02/08 17:17:03;;;;;;;8.23;1.80;;;;;;;16.26;100.00;102533.63;5086223;28;20358;-47
2022/02/08 17:34:35;;;;;;;6.90;1.47;;;;;;;16.28;100.00;102548.63;5072996;28;20485;-45
2022/02/08 17:36:52;;;;;;;13.20;3.70;;;;;;;15.86;100.00;102558.28;5072679;28;20328;-49
2022/02/08 17:46:35;;;;;;;6.87;1.60;;;;;;;15.89;100.00;102561.44;5075907;28;20724;-49
2022/02/08 17:49:00;;;;;;;8.33;1.90;;;;;;;15.84;100.00;102558.47;5084690;28;20280;-47
2022/02/08 17:51:26;;;;;;;7.67;1.83;;;;;;;16.20;100.00;102548.72;5066385;28;20280;-47
2022/02/08 17:53:51;;;;;;;7.85;1.58;;;;;;;15.97;100.00;102543.50;5077700;28;20043;-48
2022/02/08 17:56:17;;;;;;;6.40;2.10;;;;;;;16.14;100.00;102536.81;5088981;28;20128;-49
2022/02/08 17:58:44;;;;;;;10.60;2.03;;;;;;;16.21;100.00;102542.31;5078476;28;20045;-46
2022/02/08 18:01:09;;;;;;;8.30;2.50;;;;;;;16.15;100.00;102543.94;5083063;28;20032;-54
2022/02/08 18:03:35;;;;;;;8.40;2.07;;;;;;;15.60;100.00;102538.88;5086093;28;20282;-46
2022/02/08 18:06:00;;;;;;;11.70;2.27;;;;;;;15.63;100.00;102546.59;5076414;28;20063;-46
2022/02/08 18:08:27;;;;;;;4.13;2.03;;;;;;;15.76;100.00;102540.53;5089548;28;20060;-50
2022/02/08 18:10:57;;;;;;;8.40;1.93;;;;;;;16.07;100.00;102535.94;5079336;28;20047;-48
2022/02/08 18:13:24;;;;;;;8.67;2.07;;;;;;;15.63;100.00;102533.09;5092898;28;20276;-48